Time;durP1;ratioP1;P1;durP2;ratioP2;P2;SDS_P1;SDS_P2;PMS_P1;PMS_P2;Temp;Humidity;BMP_temperature;BMP_pressure;BME280_temperature;BME280_humidity;BME280_pressure;Samples;Min_cycle;Max_cycle;Signal;HPM_P1;HPM_P2
2021/10/29 00:01:43;;;;;;;61.73;30.92;;;;;;;0.47;75.06;98669.36;1697170;85;21161;-85
2021/10/29 00:04:09;;;;;;;61.60;29.85;;;;;;;0.41;75.14;98664.88;1697290;85;21019;-85
2021/10/29 00:06:36;;;;;;;59.55;29.07;;;;;;;0.43;75.41;98667.12;1667740;85;21046;-86
2021/10/29 00:09:03;;;;;;;59.23;28.23;;;;;;;0.47;75.65;98661.54;1697160;85;21002;-86
2021/10/29 00:11:30;;;;;;;55.80;28.57;;;;;;;0.49;75.17;98658.52;1698466;84;21009;-86
2021/10/29 00:13:56;;;;;;;64.17;28.75;;;;;;;0.54;76.44;98666.02;1701018;84;21413;-86
2021/10/29 00:16:23;;;;;;;47.00;25.32;;;;;;;0.57;76.79;98662.19;1698717;84;21001;-87
2021/10/29 00:18:49;;;;;;;51.58;26.02;;;;;;;0.58;77.12;98664.39;1743660;82;20965;-86
2021/10/29 00:21:18;;;;;;;51.83;25.62;;;;;;;0.63;77.28;98666.67;1748939;82;21485;-87
2021/10/29 00:23:44;;;;;;;51.85;26.12;;;;;;;0.68;77.50;98665.45;1749285;82;21051;-87
2021/10/29 00:26:11;;;;;;;53.55;26.12;;;;;;;0.72;77.28;98664.67;1748138;81;20988;-87
2021/10/29 00:28:37;;;;;;;49.90;25.70;;;;;;;0.73;76.98;98655.98;1749385;82;21036;-87
2021/10/29 00:31:04;;;;;;;52.58;26.45;;;;;;;0.72;77.29;98650.31;1749376;82;21466;-87
2021/10/29 00:33:31;;;;;;;52.88;26.55;;;;;;;0.75;77.06;98651.25;1749313;82;20993;-87
2021/10/29 00:35:59;;;;;;;50.73;25.57;;;;;;;0.76;76.64;98649.54;1739711;82;21029;-87
2021/10/29 00:38:28;;;;;;;51.65;25.95;;;;;;;0.68;76.15;98649.38;1732082;83;20989;-86
2021/10/29 00:40:55;;;;;;;53.58;26.42;;;;;;;0.65;76.43;98650.61;1732137;82;20989;-86
2021/10/29 00:43:21;;;;;;;50.45;25.50;;;;;;;0.62;76.96;98654.03;1732157;83;21399;-87
2021/10/29 00:45:48;;;;;;;50.70;25.12;;;;;;;0.57;78.20;98645.64;1735447;82;21041;-86
2021/10/29 00:48:15;;;;;;;52.00;26.57;;;;;;;0.51;77.30;98640.76;1748920;81;21028;-86
2021/10/29 00:50:42;;;;;;;50.30;25.35;;;;;;;0.42;76.29;98642.30;1749126;82;20973;-86
2021/10/29 00:53:10;;;;;;;43.70;24.05;;;;;;;0.35;78.37;98638.27;1749160;82;21030;-86
2021/10/29 00:55:37;;;;;;;51.73;25.65;;;;;;;0.29;76.88;98638.55;1749164;82;21076;-86
2021/10/29 00:58:03;;;;;;;47.40;24.75;;;;;;;0.24;77.12;98636.72;1749245;82;21028;-86
2021/10/29 01:00:30;;;;;;;44.93;25.37;;;;;;;0.25;76.63;98638.91;1736701;82;20981;-86
2021/10/29 01:02:57;;;;;;;49.67;26.17;;;;;;;0.22;76.41;98638.42;1744231;82;20984;-84
2021/10/29 01:05:25;;;;;;;50.35;25.70;;;;;;;0.20;76.44;98632.72;1740153;82;21085;-86
2021/10/29 01:07:53;;;;;;;51.08;25.90;;;;;;;0.13;76.30;98636.47;1691115;83;21025;-85
2021/10/29 01:10:21;;;;;;;48.52;24.90;;;;;;;0.10;76.19;98637.72;1719504;83;20969;-87
2021/10/29 01:12:47;;;;;;;51.68;26.12;;;;;;;0.07;77.11;98639.36;1720019;83;21083;-86
2021/10/29 01:15:14;;;;;;;52.50;25.43;;;;;;;0.04;76.71;98636.25;1730701;82;21030;-86
2021/10/29 01:17:40;;;;;;;45.70;25.40;;;;;;;0.03;76.48;98638.41;1744052;82;21409;-86
2021/10/29 01:20:08;;;;;;;52.55;25.30;;;;;;;0.01;76.46;98634.91;1732178;83;20998;-87
2021/10/29 01:22:35;;;;;;;52.13;26.97;;;;;;;-0.02;76.60;98629.20;1732408;83;20984;-87
2021/10/29 01:25:02;;;;;;;52.88;27.95;;;;;;;-0.04;76.52;98632.17;1748103;82;20977;-87
2021/10/29 01:27:28;;;;;;;49.15;25.32;;;;;;;-0.08;76.71;98625.12;1749189;82;21048;-87
2021/10/29 01:29:56;;;;;;;49.10;25.32;;;;;;;-0.06;78.02;98622.56;1749177;82;21000;-86
2021/10/29 01:32:23;;;;;;;52.98;25.82;;;;;;;-0.07;76.92;98620.80;1749010;82;21017;-87
2021/10/29 01:34:50;;;;;;;48.68;25.08;;;;;;;-0.10;76.68;98627.23;1749185;82;20959;-87
2021/10/29 01:37:16;;;;;;;54.80;25.68;;;;;;;-0.14;76.55;98617.17;1749254;82;21009;-87
2021/10/29 01:39:44;;;;;;;51.35;25.85;;;;;;;-0.12;76.66;98617.22;1751486;82;21099;-87
2021/10/29 01:42:11;;;;;;;47.45;24.92;;;;;;;-0.17;76.76;98614.52;1754867;82;20985;-87
2021/10/29 01:44:39;;;;;;;55.35;26.23;;;;;;;-0.18;76.77;98614.03;1727114;82;21469;-87
2021/10/29 01:47:06;;;;;;;49.08;25.95;;;;;;;-0.18;77.64;98620.13;1738485;82;21123;-85
2021/10/29 01:49:33;;;;;;;55.28;25.25;;;;;;;-0.17;76.93;98615.81;1724868;83;20977;-86
2021/10/29 01:52:00;;;;;;;48.75;25.62;;;;;;;-0.19;77.28;98614.47;1724815;83;21020;-86
2021/10/29 01:54:30;;;;;;;47.48;24.57;;;;;;;-0.17;76.91;98611.47;1729871;82;21020;-87
2021/10/29 01:56:58;;;;;;;47.27;23.57;;;;;;;-0.18;76.94;98615.33;1754714;82;21489;-86
2021/10/29 01:59:26;;;;;;;45.08;23.83;;;;;;;-0.21;76.87;98612.23;1754719;82;21019;-87
2021/10/29 02:01:54;;;;;;;45.92;23.92;;;;;;;-0.27;77.02;98612.98;1754690;81;21494;-86
2021/10/29 02:04:21;;;;;;;53.63;25.23;;;;;;;-0.30;77.11;98609.00;1754111;82;21004;-87
2021/10/29 02:06:48;;;;;;;45.10;24.67;;;;;;;-0.31;77.24;98602.44;1733143;82;21073;-87
2021/10/29 02:09:15;;;;;;;47.58;24.07;;;;;;;-0.33;77.18;98607.61;1754702;82;21442;-87
2021/10/29 02:11:42;;;;;;;52.80;26.60;;;;;;;-0.35;77.21;98608.42;1754578;82;20993;-86
2021/10/29 02:14:09;;;;;;;52.25;27.32;;;;;;;-0.37;77.24;98603.61;1754702;82;21064;-86
2021/10/29 02:16:36;;;;;;;47.40;24.37;;;;;;;-0.38;77.45;98602.71;1727222;82;21003;-87
2021/10/29 02:19:03;;;;;;;46.50;24.70;;;;;;;-0.41;77.57;98612.63;1754677;81;21418;-86
2021/10/29 02:21:31;;;;;;;46.18;24.98;;;;;;;-0.40;78.33;98607.88;1754483;82;20973;-86
2021/10/29 02:23:58;;;;;;;46.33;24.18;;;;;;;-0.37;77.78;98607.52;1754711;81;21050;-87
2021/10/29 02:26:26;;;;;;;42.30;22.95;;;;;;;-0.36;77.63;98599.74;1754955;82;20993;-86
2021/10/29 02:28:55;;;;;;;41.63;23.22;;;;;;;-0.31;78.50;98597.23;1754047;82;21036;-87
2021/10/29 02:31:21;;;;;;;42.73;22.07;;;;;;;-0.30;78.16;98598.98;1754664;82;21044;-87
2021/10/29 02:33:48;;;;;;;42.17;22.30;;;;;;;-0.28;78.69;98601.22;1737291;82;21028;-86
2021/10/29 02:36:14;;;;;;;42.40;22.07;;;;;;;-0.27;78.18;98595.16;1741926;82;20969;-86
2021/10/29 02:38:40;;;;;;;41.45;21.50;;;;;;;-0.31;78.46;98593.33;1754362;82;21508;-86
2021/10/29 02:41:07;;;;;;;45.35;22.00;;;;;;;-0.30;78.40;98597.28;1749795;82;21009;-87
2021/10/29 02:43:33;;;;;;;38.65;21.82;;;;;;;-0.28;78.00;98596.88;1748940;82;21417;-86
2021/10/29 02:46:00;;;;;;;41.63;21.37;;;;;;;-0.30;78.11;98598.58;1738678;82;20975;-86
2021/10/29 02:48:27;;;;;;;46.35;22.30;;;;;;;-0.28;78.07;98601.22;1732272;82;21039;-86
2021/10/29 02:50:53;;;;;;;43.48;22.42;;;;;;;-0.27;78.00;98597.77;1732026;83;21087;-86
2021/10/29 02:53:20;;;;;;;47.93;22.90;;;;;;;-0.30;78.73;98600.29;1732131;83;21023;-86
2021/10/29 02:55:46;;;;;;;45.75;23.20;;;;;;;-0.30;79.01;98595.08;1731916;83;21504;-87
2021/10/29 02:58:13;;;;;;;36.85;21.37;;;;;;;-0.28;78.20;98603.83;1732140;83;21044;-87
2021/10/29 03:00:40;;;;;;;43.23;21.55;;;;;;;-0.29;78.27;98605.98;1744267;82;20985;-87
2021/10/29 03:03:07;;;;;;;38.95;21.30;;;;;;;-0.29;78.20;98606.84;1748953;82;21469;-87
2021/10/29 03:05:37;;;;;;;47.73;22.60;;;;;;;-0.28;78.21;98603.39;1749676;82;21438;-87
2021/10/29 03:08:03;;;;;;;41.48;21.07;;;;;;;-0.28;78.04;98607.73;1749259;82;21415;-86
2021/10/29 03:10:30;;;;;;;42.88;20.92;;;;;;;-0.34;78.04;98599.34;1732428;82;20962;-86
2021/10/29 03:12:57;;;;;;;42.83;21.55;;;;;;;-0.38;78.00;98600.11;1694050;83;21465;-86
2021/10/29 03:15:23;;;;;;;40.80;22.90;;;;;;;-0.44;78.14;98600.86;1704231;83;21072;-85
2021/10/29 03:17:50;;;;;;;42.08;22.15;;;;;;;-0.47;78.10;98603.38;1721735;83;20968;-86
2021/10/29 03:20:16;;;;;;;41.18;21.07;;;;;;;-0.48;78.37;98600.73;1717235;83;21023;-86
2021/10/29 03:22:43;;;;;;;46.20;22.95;;;;;;;-0.51;78.19;98599.37;1708906;84;20985;-86
2021/10/29 03:25:09;;;;;;;46.35;22.55;;;;;;;-0.51;78.19;98604.14;1698419;84;21017;-86
2021/10/29 03:27:36;;;;;;;39.88;21.10;;;;;;;-0.52;78.19;98598.48;1683986;84;21373;-87
2021/10/29 03:30:05;;;;;;;43.38;22.30;;;;;;;-0.56;78.47;98603.15;1709186;84;21025;-87
2021/10/29 03:32:32;;;;;;;40.55;21.55;;;;;;;-0.58;78.47;98599.20;1709151;84;21027;-87
2021/10/29 03:34:59;;;;;;;42.85;22.20;;;;;;;-0.58;78.53;98600.94;1709189;84;20993;-87
2021/10/29 03:45:54;;;;;;;43.33;21.23;;;;;;;-0.54;78.74;98613.20;1709904;83;21028;-86
2021/10/29 03:48:25;;;;;;;45.78;22.82;;;;;;;-0.49;78.72;98609.39;1699055;84;21055;-86
2021/10/29 03:51:08;;;;;;;39.83;21.02;;;;;;;-0.55;78.52;98606.20;1696968;84;21050;-86
2021/10/29 03:56:16;;;;;;;42.83;21.02;;;;;;;-0.50;79.02;98611.10;1697221;84;21017;-86
2021/10/29 03:58:36;;;;;;;39.23;21.27;;;;;;;-0.51;79.11;98613.25;1696112;85;21071;-86
2021/10/29 04:01:02;;;;;;;40.43;21.62;;;;;;;-0.49;78.68;98608.98;1697323;85;21040;-85
2021/10/29 04:03:29;;;;;;;40.55;21.80;;;;;;;-0.49;78.68;98607.69;1697125;84;21033;-86
2021/10/29 04:05:55;;;;;;;38.90;21.60;;;;;;;-0.50;78.48;98612.84;1697234;84;21065;-85
2021/10/29 04:08:21;;;;;;;43.30;21.50;;;;;;;-0.48;78.37;98610.73;1697303;85;21029;-86
2021/10/29 04:10:50;;;;;;;46.53;21.35;;;;;;;-0.52;78.66;98604.98;1697645;84;21028;-86
2021/10/29 04:13:17;;;;;;;39.88;21.68;;;;;;;-0.54;78.44;98611.89;1700255;84;21071;-86
2021/10/29 04:15:44;;;;;;;45.60;22.62;;;;;;;-0.53;78.59;98609.75;1694237;84;21004;-86
2021/10/29 04:18:11;;;;;;;44.95;22.77;;;;;;;-0.54;78.50;98612.76;1701109;84;21096;-85
2021/10/29 04:20:38;;;;;;;42.75;22.42;;;;;;;-0.54;78.77;98612.76;1701015;84;21448;-85
2021/10/29 04:23:06;;;;;;;40.55;20.27;;;;;;;-0.52;78.56;98606.30;1701160;84;21095;-85
2021/10/29 04:25:33;;;;;;;39.78;20.55;;;;;;;-0.53;79.50;98601.94;1691628;84;21008;-85
2021/10/29 04:28:05;;;;;;;35.78;19.60;;;;;;;-0.56;79.93;98613.56;1684832;84;21009;-85
2021/10/29 04:30:29;;;;;;;42.15;20.75;;;;;;;-0.52;79.91;98613.21;1684660;85;21053;-85
2021/10/29 04:33:07;;;;;;;42.30;21.02;;;;;;;-0.52;79.97;98608.89;1680341;85;21061;-85
2021/10/29 04:35:32;;;;;;;40.23;20.20;;;;;;;-0.51;79.79;98604.58;1684685;85;21013;-85
2021/10/29 04:37:58;;;;;;;39.60;20.75;;;;;;;-0.50;79.45;98605.03;1656093;85;21037;-85
2021/10/29 04:40:25;;;;;;;41.58;20.23;;;;;;;-0.53;79.60;98600.63;1716362;83;21030;-86
2021/10/29 04:42:51;;;;;;;38.17;20.90;;;;;;;-0.54;79.46;98601.05;1721542;83;20992;-86
2021/10/29 04:45:18;;;;;;;38.17;20.90;;;;;;;-0.49;79.19;98602.88;1708567;84;21011;-85
2021/10/29 04:47:46;;;;;;;47.67;21.25;;;;;;;-0.48;79.25;98600.73;1708840;84;21004;-86
2021/10/29 04:50:13;;;;;;;43.00;22.15;;;;;;;-0.53;79.02;98592.82;1708810;84;21024;-85
2021/10/29 04:52:40;;;;;;;51.30;24.10;;;;;;;-0.54;80.10;98593.67;1708291;84;21073;-85
2021/10/29 04:55:09;;;;;;;43.83;22.62;;;;;;;-0.58;80.05;98593.13;1709088;84;21040;-85
2021/10/29 04:57:35;;;;;;;39.75;21.12;;;;;;;-0.60;79.74;98591.78;1709301;84;21347;-85
2021/10/29 05:00:05;;;;;;;38.58;21.52;;;;;;;-0.64;81.59;98592.95;1709076;84;21093;-86
2021/10/29 05:02:34;;;;;;;46.85;21.68;;;;;;;-0.68;80.00;98590.30;1708975;84;21429;-85
2021/10/29 05:05:04;;;;;;;40.85;20.27;;;;;;;-0.66;80.08;98578.63;1709106;84;21434;-85
2021/10/29 05:07:31;;;;;;;37.98;21.02;;;;;;;-0.65;80.07;98587.30;1708736;84;20977;-86
2021/10/29 05:09:58;;;;;;;39.05;20.68;;;;;;;-0.63;79.81;98585.63;1707604;84;21079;-86
2021/10/29 05:12:26;;;;;;;39.42;21.10;;;;;;;-0.59;79.71;98583.53;1696890;85;21096;-87
2021/10/29 05:14:54;;;;;;;39.90;20.43;;;;;;;-0.61;79.55;98587.84;1697426;85;21053;-86
2021/10/29 05:17:21;;;;;;;36.42;20.88;;;;;;;-0.61;79.74;98589.14;1699620;84;21052;-86
2021/10/29 05:19:48;;;;;;;40.98;20.37;;;;;;;-0.61;79.49;98595.23;1708933;84;21100;-87
2021/10/29 05:22:15;;;;;;;38.70;20.43;;;;;;;-0.60;79.53;98593.09;1709107;84;21440;-88
2021/10/29 05:24:42;;;;;;;35.25;20.23;;;;;;;-0.58;79.28;98592.69;1678407;84;21076;-87
2021/10/29 05:27:10;;;;;;;34.20;20.20;;;;;;;-0.56;79.58;98592.73;1698400;84;20987;-87
2021/10/29 05:29:37;;;;;;;38.13;21.17;;;;;;;-0.58;79.28;98593.13;1717101;83;20985;-88
2021/10/29 05:32:04;;;;;;;37.30;20.48;;;;;;;-0.57;79.45;98592.28;1699421;84;20986;-87
2021/10/29 05:34:31;;;;;;;36.38;19.95;;;;;;;-0.54;79.74;98597.58;1697209;85;21030;-87
2021/10/29 05:36:58;;;;;;;40.83;20.17;;;;;;;-0.51;79.78;98591.56;1698534;84;20981;-88
2021/10/29 05:39:25;;;;;;;37.50;19.73;;;;;;;-0.46;79.69;98592.11;1700040;84;21001;-88
2021/10/29 05:41:55;;;;;;;35.75;18.30;;;;;;;-0.45;79.63;98587.80;1687450;85;21036;-88
2021/10/29 05:44:22;;;;;;;37.53;17.52;;;;;;;-0.43;79.32;98593.50;1705309;84;21000;-88
2021/10/29 05:46:49;;;;;;;32.58;17.90;;;;;;;-0.42;79.61;98603.06;1714237;84;20976;-88
2021/10/29 05:49:16;;;;;;;35.85;18.77;;;;;;;-0.40;80.57;98601.37;1713949;84;21553;-88
2021/10/29 05:51:48;;;;;;;33.85;19.98;;;;;;;-0.40;80.67;98605.27;1712914;84;21496;-87
2021/10/29 05:54:39;;;;;;;38.38;21.12;;;;;;;-0.41;81.55;98606.56;1712440;84;21080;-87
2021/10/29 05:56:56;;;;;;;44.27;21.55;;;;;;;-0.44;80.52;98598.66;1711173;84;20992;-88
2021/10/29 05:59:23;;;;;;;44.80;20.70;;;;;;;-0.44;80.57;98604.77;1712973;84;21016;-87
2021/10/29 06:01:50;;;;;;;48.58;22.82;;;;;;;-0.44;80.26;98608.67;1704733;84;20953;-87
2021/10/29 06:04:17;;;;;;;45.83;21.57;;;;;;;-0.38;80.19;98609.67;1697408;84;20981;-86
2021/10/29 06:06:45;;;;;;;41.45;20.90;;;;;;;-0.34;80.40;98610.20;1697104;85;21001;-86
2021/10/29 06:09:12;;;;;;;43.70;22.35;;;;;;;-0.32;79.79;98615.91;1697101;85;21029;-86
2021/10/29 06:11:39;;;;;;;41.73;21.82;;;;;;;-0.25;79.77;98619.52;1697363;85;21073;-86
2021/10/29 06:14:05;;;;;;;53.63;24.47;;;;;;;-0.20;79.71;98619.64;1699745;84;20965;-86
2021/10/29 06:16:32;;;;;;;42.98;22.00;;;;;;;-0.19;80.52;98618.38;1707759;84;20996;-86
2021/10/29 06:18:58;;;;;;;43.20;21.15;;;;;;;-0.13;79.75;98625.44;1708573;84;21031;-86
2021/10/29 06:21:34;;;;;;;40.20;21.65;;;;;;;-0.06;79.76;98621.25;1708699;84;21012;-86
2021/10/29 06:26:27;;;;;;;35.65;19.55;;;;;;;0.01;80.51;98619.27;1697005;85;20977;-86
2021/10/29 06:28:54;;;;;;;39.50;20.48;;;;;;;0.09;79.60;98612.92;1698031;84;21040;-86
2021/10/29 06:31:21;;;;;;;39.18;20.40;;;;;;;0.13;79.89;98624.73;1708740;84;20961;-87
2021/10/29 06:33:48;;;;;;;37.88;19.17;;;;;;;0.22;79.44;98627.10;1708711;84;21044;-86
2021/10/29 06:36:16;;;;;;;37.60;20.02;;;;;;;0.30;79.34;98626.86;1708506;84;21460;-88
2021/10/29 06:38:43;;;;;;;44.10;19.77;;;;;;;0.37;79.22;98622.63;1703216;83;21886;-86
2021/10/29 06:41:11;;;;;;;38.42;20.90;;;;;;;0.44;79.67;98626.25;1696980;84;21053;-84
2021/10/29 06:44:04;;;;;;;40.10;22.00;;;;;;;0.52;79.22;98626.89;1707754;84;21088;-85
2021/10/29 07:02:59;;;;;;;39.45;21.10;;;;;;;1.15;78.51;98622.86;1686711;84;21448;-78
2021/10/29 07:11:39;;;;;;;40.63;21.25;;;;;;;1.45;78.42;98617.31;1706316;84;21080;-80
2021/10/29 07:39:57;;;;;;;44.55;23.27;;;;;;;1.56;78.33;98617.51;1702095;84;21051;-80
2021/10/29 07:40:25;;;;;;;57.60;30.50;;;;;;;2.72;76.91;98608.66;1705905;84;21032;-78
2021/10/29 07:45:22;;;;;;;63.42;33.28;;;;;;;2.96;76.62;98602.84;1694845;84;21109;-79
2021/10/29 07:47:50;;;;;;;65.70;33.88;;;;;;;3.07;76.48;98602.94;1705469;84;21016;-78
2021/10/29 07:50:19;;;;;;;62.33;33.40;;;;;;;3.20;76.32;98600.45;1706057;84;21072;-79
2021/10/29 07:52:51;;;;;;;71.77;37.65;;;;;;;3.33;76.15;98603.66;1706444;84;21058;-78
2021/10/29 07:55:21;;;;;;;85.62;42.43;;;;;;;3.45;76.01;98600.69;1706355;84;21088;-81
2021/10/29 07:57:49;;;;;;;82.40;42.33;;;;;;;3.58;75.72;98593.80;1714530;83;21036;-82
2021/10/29 08:00:30;;;;;;;78.00;40.88;;;;;;;3.69;75.62;98597.38;1680029;85;21066;-82
2021/10/29 08:03:05;;;;;;;78.35;43.55;;;;;;;3.82;75.13;98590.52;1671929;84;21035;-82
2021/10/29 08:05:31;;;;;;;90.42;44.80;;;;;;;4.00;74.85;98586.25;1685658;85;21140;-80
2021/10/29 08:07:58;;;;;;;88.22;41.88;;;;;;;4.16;74.95;98589.85;1719552;83;21033;-80
2021/10/29 08:10:27;;;;;;;83.55;41.68;;;;;;;4.27;74.51;98583.36;1718870;83;21128;-77
2021/10/29 08:12:54;;;;;;;84.60;43.05;;;;;;;4.40;73.93;98579.91;1709376;84;21449;-79
2021/10/29 08:15:22;;;;;;;81.72;42.00;;;;;;;4.52;74.07;98581.71;1708380;84;21092;-78
2021/10/29 08:17:49;;;;;;;84.30;45.00;;;;;;;4.64;73.96;98576.95;1681740;84;21525;-80
2021/10/29 08:20:17;;;;;;;84.15;43.73;;;;;;;4.77;73.58;98583.12;1680660;85;21157;-78
2021/10/29 08:22:45;;;;;;;80.22;41.48;;;;;;;4.89;73.16;98575.29;1706910;84;21071;-78
2021/10/29 08:25:13;;;;;;;88.37;42.15;;;;;;;5.02;72.79;98568.73;1697050;84;21436;-76
2021/10/29 08:27:41;;;;;;;79.77;42.45;;;;;;;5.15;72.76;98579.72;1698611;84;21412;-77
2021/10/29 08:30:09;;;;;;;78.25;44.33;;;;;;;5.26;72.28;98571.86;1705590;84;21564;-80
2021/10/29 08:32:42;;;;;;;90.12;45.92;;;;;;;5.36;72.24;98570.10;1705385;84;21037;-78
2021/10/29 08:35:10;;;;;;;78.22;43.08;;;;;;;5.47;71.68;98566.59;1725042;83;21087;-79
2021/10/29 08:37:40;;;;;;;75.17;44.33;;;;;;;5.61;70.80;98561.36;1724628;83;21032;-79
2021/10/29 08:40:09;;;;;;;78.07;44.27;;;;;;;5.73;70.83;98561.34;1725080;82;21080;-80
2021/10/29 08:42:36;;;;;;;81.80;45.80;;;;;;;5.89;69.96;98563.95;1739265;82;21015;-79
2021/10/29 08:45:06;;;;;;;80.67;43.23;;;;;;;6.05;69.81;98564.83;1740777;82;20997;-79
2021/10/29 08:47:40;;;;;;;73.15;42.15;;;;;;;6.18;70.12;98557.35;1744635;82;21524;-80
2021/10/29 08:50:12;;;;;;;81.50;43.55;;;;;;;6.28;70.08;98552.95;1741666;82;21032;-78
2021/10/29 08:52:41;;;;;;;74.70;42.38;;;;;;;6.38;69.81;98548.94;1752336;81;21327;-79
2021/10/29 08:55:11;;;;;;;74.95;43.58;;;;;;;6.50;68.95;98544.96;1723525;82;21040;-79
2021/10/29 08:57:39;;;;;;;77.62;43.98;;;;;;;6.65;67.93;98542.72;1752841;82;21052;-80
2021/10/29 09:00:14;;;;;;;78.12;44.03;;;;;;;6.79;67.89;98535.16;1752347;82;22101;-83
2021/10/29 09:02:47;;;;;;;81.67;42.43;;;;;;;6.91;68.34;98538.16;1725117;82;21024;-79
2021/10/29 09:05:24;;;;;;;73.22;39.80;;;;;;;7.00;68.38;98538.11;1746105;81;21008;-78
2021/10/29 09:07:59;;;;;;;80.83;41.37;;;;;;;7.09;67.46;98523.56;1736819;82;21012;-82
2021/10/29 09:33:01;;;;;;;83.82;46.68;;;;;;;8.55;65.75;98512.04;1720054;83;21039;-77
2021/10/29 09:35:32;;;;;;;66.20;36.10;;;;;;;8.72;65.42;98503.00;1712056;84;21059;-84
2021/10/29 09:38:12;;;;;;;65.25;36.08;;;;;;;8.91;63.15;98504.06;1683821;84;21536;-83
2021/10/29 09:41:03;;;;;;;61.98;34.80;;;;;;;9.11;64.17;98495.38;1692439;84;20985;-83
2021/10/29 09:43:35;;;;;;;57.60;34.40;;;;;;;9.30;63.57;98492.45;1691008;84;21485;-83
2021/10/29 09:46:04;;;;;;;58.98;33.90;;;;;;;9.48;63.22;98484.64;1707531;84;21049;-81
2021/10/29 09:51:08;;;;;;;61.70;35.83;;;;;;;9.88;60.66;98481.73;1724657;83;21448;-81
2021/10/29 09:58:53;;;;;;;54.53;29.72;;;;;;;10.45;60.15;98476.23;1749794;82;21075;-83
2021/10/29 10:01:22;;;;;;;53.35;29.60;;;;;;;10.67;58.67;98477.11;1748597;82;20997;-80
2021/10/29 10:03:50;;;;;;;47.95;29.75;;;;;;;10.87;57.15;98474.46;1742435;82;21252;-83
2021/10/29 10:06:20;;;;;;;46.73;29.30;;;;;;;11.02;57.12;98474.54;1723422;83;22080;-78
2021/10/29 10:08:54;;;;;;;40.15;25.82;;;;;;;11.22;57.06;98465.64;1714769;83;21087;-81
2021/10/29 10:11:27;;;;;;;49.18;25.88;;;;;;;11.41;55.92;98467.84;1719182;83;21025;-77
2021/10/29 10:13:56;;;;;;;42.85;25.10;;;;;;;11.58;57.69;98461.21;1712429;84;21519;-76
2021/10/29 10:16:25;;;;;;;44.73;24.05;;;;;;;11.72;56.61;98444.46;1711760;84;20986;-77
2021/10/29 10:18:51;;;;;;;40.83;22.58;;;;;;;11.87;55.94;98444.52;1723038;82;21020;-77
2021/10/29 10:21:21;;;;;;;38.17;21.37;;;;;;;12.00;54.48;98438.39;1750052;82;21025;-77
2021/10/29 10:23:53;;;;;;;35.48;20.25;;;;;;;12.16;53.11;98439.79;1750279;82;21024;-77
2021/10/29 10:43:39;;;;;;;27.58;17.40;;;;;;;18.77;35.91;98393.37;1720105;83;21527;-78
2021/10/29 10:46:18;;;;;;;30.97;17.50;;;;;;;19.88;40.62;98384.64;1700845;84;21052;-77
2021/10/29 10:48:54;;;;;;;25.15;15.50;;;;;;;21.04;36.25;98379.61;1695801;84;21442;-77
2021/10/29 10:51:44;;;;;;;20.45;15.32;;;;;;;21.97;32.09;98374.30;1694674;85;21481;-79
2021/10/29 10:54:34;;;;;;;19.15;13.13;;;;;;;22.88;36.28;98372.78;1738047;82;21306;-78
2021/10/29 11:00:03;;;;;;;15.35;10.32;;;;;;;24.38;30.71;98359.53;1735644;82;21027;-78
2021/10/29 11:05:35;;;;;;;15.30;9.75;;;;;;;25.63;29.22;98347.92;1719807;83;21590;-81
2021/10/29 11:11:17;;;;;;;13.25;9.70;;;;;;;26.71;28.39;98347.06;1698012;84;21108;-83
2021/10/29 11:13:57;;;;;;;14.98;9.40;;;;;;;27.28;27.13;98344.20;1706881;84;21086;-80
2021/10/29 11:16:38;;;;;;;15.53;9.18;;;;;;;27.69;25.68;98338.56;1706546;83;21048;-80
2021/10/29 11:19:16;;;;;;;16.35;9.25;;;;;;;27.41;22.82;98342.54;1692276;84;21004;-80
2021/10/29 11:21:53;;;;;;;12.53;8.78;;;;;;;27.96;25.37;98339.65;1691656;82;21048;-80
2021/10/29 11:24:36;;;;;;;14.33;9.70;;;;;;;28.18;22.79;98327.52;1753129;81;21532;-80
2021/10/29 11:27:18;;;;;;;13.98;9.55;;;;;;;28.44;22.97;98332.30;1758504;81;21572;-79
2021/10/29 11:29:53;;;;;;;15.08;10.20;;;;;;;28.83;22.59;98329.84;1755653;81;21092;-79
2021/10/29 11:32:25;;;;;;;12.82;9.18;;;;;;;29.00;23.66;98325.94;1708322;82;21024;-80
2021/10/29 11:35:01;;;;;;;12.70;9.05;;;;;;;29.35;22.69;98324.19;1753242;82;21009;-80
2021/10/29 11:37:32;;;;;;;13.85;8.93;;;;;;;29.55;21.90;98323.20;1747798;82;21017;-79
2021/10/29 11:39:59;;;;;;;12.35;8.80;;;;;;;29.68;21.89;98320.04;1733588;81;21050;-80
2021/10/29 11:42:28;;;;;;;11.18;8.55;;;;;;;29.94;21.42;98320.03;1738274;82;21021;-78
2021/10/29 11:44:58;;;;;;;14.25;8.93;;;;;;;29.73;20.11;98314.95;1744354;82;21095;-84
2021/10/29 11:47:26;;;;;;;11.10;9.05;;;;;;;29.48;21.61;98317.48;1746832;82;21080;-80
2021/10/29 11:49:53;;;;;;;12.82;8.73;;;;;;;29.37;20.78;98319.95;1739074;82;21481;-80
2021/10/29 11:52:21;;;;;;;14.98;9.43;;;;;;;29.61;21.35;98312.47;1746317;82;20997;-80
2021/10/29 11:54:51;;;;;;;16.80;9.75;;;;;;;29.51;21.22;98314.44;1742798;82;21027;-79
2021/10/29 11:57:44;;;;;;;14.10;9.50;;;;;;;29.30;19.48;98314.78;1744837;82;21041;-79
2021/10/29 12:08:22;;;;;;;13.70;9.88;;;;;;;27.19;19.58;98301.53;1735213;82;21085;-84
2021/10/29 12:10:50;;;;;;;16.32;9.85;;;;;;;26.15;21.20;98307.69;1743387;80;20973;-83
2021/10/29 12:13:17;;;;;;;14.10;9.28;;;;;;;25.22;22.70;98298.44;1740813;81;21003;-82
2021/10/29 12:15:45;;;;;;;13.88;8.63;;;;;;;24.54;23.54;98299.55;1734917;82;21005;-80
2021/10/29 12:18:13;;;;;;;17.85;9.83;;;;;;;24.11;24.03;98298.00;1737690;82;20986;-81
2021/10/29 12:20:45;;;;;;;16.97;9.85;;;;;;;23.93;23.87;98300.80;1740450;82;21000;-80
2021/10/29 12:23:22;;;;;;;14.68;10.25;;;;;;;23.10;24.83;98292.28;1730074;81;21497;-80
2021/10/29 12:30:53;;;;;;;22.70;12.07;;;;;;;21.49;27.10;98280.89;1747564;82;21032;-78
2021/10/29 12:39:20;;;;;;;21.57;12.15;;;;;;;20.49;28.13;98277.25;1709625;84;21502;-77
2021/10/29 13:01:59;;;;;;;23.83;13.20;;;;;;;19.39;30.69;98265.72;1749619;80;21348;-77
2021/10/29 13:04:44;;;;;;;23.98;12.85;;;;;;;19.32;30.60;98266.20;1755784;80;21213;-79
2021/10/29 13:07:10;;;;;;;21.87;12.10;;;;;;;18.99;30.98;98258.22;1755908;80;21022;-82
2021/10/29 13:09:40;;;;;;;21.95;12.40;;;;;;;18.78;31.51;98272.94;1755892;82;21162;-80
2021/10/29 13:14:54;;;;;;;20.77;10.68;;;;;;;18.49;31.96;98269.67;1710705;81;21378;-80
2021/10/29 13:17:24;;;;;;;19.62;10.25;;;;;;;18.91;31.65;98272.61;1755375;80;20993;-78
2021/10/29 13:20:03;;;;;;;19.70;11.12;;;;;;;19.16;31.06;98265.79;1749495;80;21037;-78
2021/10/29 13:25:16;;;;;;;20.92;12.53;;;;;;;20.43;29.83;98266.39;1712904;81;21032;-79
2021/10/29 13:28:19;;;;;;;21.65;11.57;;;;;;;20.06;29.71;98267.47;1707628;83;21460;-78
2021/10/29 13:50:15;;;;;;;24.50;15.38;;;;;;;18.27;32.28;98271.37;1697445;84;21151;-81
2021/10/29 13:50:30;;;;;;;25.80;15.43;;;;;;;17.61;33.39;98273.55;1706137;84;21010;-81
2021/10/29 13:54:23;;;;;;;26.10;15.03;;;;;;;16.62;35.70;98265.64;1688681;84;21052;-82
2021/10/29 14:02:18;;;;;;;24.18;14.38;;;;;;;16.05;37.01;98261.28;1698688;84;21096;-80
2021/10/29 14:29:14;;;;;;;33.30;15.32;;;;;;;14.75;39.23;98246.55;1707665;84;21452;-82
2021/10/29 14:31:50;;;;;;;25.60;15.13;;;;;;;14.64;40.13;98244.33;1704610;84;20949;-82
2021/10/29 14:34:19;;;;;;;31.00;16.82;;;;;;;14.54;39.69;98255.86;1709189;83;21156;-82
2021/10/29 14:39:43;;;;;;;32.25;16.82;;;;;;;14.32;40.11;98259.39;1617941;89;21476;-81
2021/10/29 14:42:22;;;;;;;34.53;17.42;;;;;;;14.20;40.82;98254.09;1682765;84;20963;-81
2021/10/29 14:44:50;;;;;;;42.93;21.02;;;;;;;14.08;40.56;98254.60;1688394;83;21090;-82
2021/10/29 14:50:09;;;;;;;38.20;19.02;;;;;;;13.79;41.43;98260.12;1705777;84;21477;-82
2021/10/29 15:00:50;;;;;;;33.48;17.85;;;;;;;13.24;42.57;98249.25;1640171;86;21222;-81
2021/10/29 15:03:26;;;;;;;36.53;18.27;;;;;;;13.09;42.94;98253.80;1689627;82;21028;-81
2021/10/29 15:05:50;;;;;;;39.30;20.77;;;;;;;12.92;43.47;98259.27;1718400;82;21017;-82
2021/10/29 15:45:50;;;;;;;36.42;16.87;;;;;;;11.00;47.80;98259.75;1705808;84;21508;-83
2021/10/29 15:48:21;;;;;;;34.70;16.07;;;;;;;10.88;47.65;98260.09;1687742;84;21032;-83
2021/10/29 15:50:45;;;;;;;43.73;18.48;;;;;;;10.76;48.26;98266.59;1693222;84;21040;-83
2021/10/29 15:53:13;;;;;;;30.85;16.42;;;;;;;10.64;48.13;98266.00;1701293;84;21057;-82